Ochre River, Canada
Current Conditions -  °F | °C
As of 3:00 PM on Thursday 23 Oct 2014 (Local Time) from CYDN Reporting Station
Clear Clear  
Wind Chill: 59°   Ceiling: Unl
Heat Index: 59°   Visibility: 9mi
Dew Point: 46°   Wind: 3mph
Humidity: 63%   Direction: 290°WNW
Pressure: 29.69"   Gusts: NA
Location:  51.05°N, 99.78°W
Report Text: CYDN 232000Z AUTO 29003KT 250V330 9SM CLR 15/08 A2969 RMK SLP061 DENSITY ALT 1400FT
Loading
Personal Weather Stations






























Interactive Weather Map
Tropical Storm Tracking
New forecast layout! Learn more

10-Day Weather Forecast

Advertisements
Track Severe Weather on mobile